createdAt,value
2022-09-10T00:01:35.013Z,90.96
2022-09-10T00:04:04.631Z,90.86
2022-09-10T00:06:35.336Z,91.43
2022-09-10T00:09:05.613Z,91.82
2022-09-10T00:11:35.067Z,91.26
2022-09-10T00:14:05.391Z,91.67
2022-09-10T00:16:34.288Z,91.40
2022-09-10T00:19:03.227Z,91.23
2022-09-10T00:21:32.014Z,91.66
2022-09-10T00:24:02.044Z,91.22
2022-09-10T00:26:34.621Z,91.32
2022-09-10T00:29:05.348Z,91.36
2022-09-10T00:31:34.789Z,91.18
2022-09-10T00:34:04.588Z,91.28
2022-09-10T00:36:35.937Z,91.85
2022-09-10T00:39:07.433Z,92.24
2022-09-10T00:41:39.294Z,92.79
2022-09-10T00:44:09.465Z,92.99
2022-09-10T00:46:42.826Z,92.94
2022-09-10T00:49:15.665Z,93.12
2022-09-10T00:51:46.275Z,93.13
2022-09-10T00:54:16.089Z,93.13
2022-09-10T00:56:46.350Z,92.91
2022-09-10T00:59:18.367Z,93.28
2022-09-10T01:01:47.280Z,93.23
2022-09-10T01:04:15.755Z,93.30
2022-09-10T01:06:45.511Z,93.73
2022-09-10T01:09:15.232Z,93.95
2022-09-10T01:11:57.733Z,93.74
2022-09-10T01:14:38.621Z,93.38
2022-09-10T01:17:15.516Z,92.95
2022-09-10T01:20:27.017Z,92.87
2022-09-10T01:23:18.050Z,92.71
2022-09-10T01:25:55.133Z,92.84
2022-09-10T01:28:30.578Z,92.68
2022-09-10T01:31:06.322Z,92.75
2022-09-10T01:33:39.145Z,92.83
2022-09-10T01:36:12.680Z,92.80
2022-09-10T01:38:41.975Z,92.75
2022-09-10T01:41:11.127Z,92.63
2022-09-10T01:43:44.871Z,92.93
2022-09-10T01:46:26.235Z,92.98
2022-09-10T01:49:06.081Z,93.46
2022-09-10T01:51:50.131Z,93.40
2022-09-10T01:54:31.549Z,93.24
2022-09-10T01:57:09.122Z,92.89
2022-09-10T01:59:46.657Z,93.27
2022-09-10T02:02:20.926Z,93.00
2022-09-10T02:04:51.237Z,93.33
2022-09-10T02:07:23.464Z,93.52
2022-09-10T02:09:54.928Z,93.53
2022-09-10T02:12:25.279Z,93.28
2022-09-10T02:15:22.525Z,93.43
2022-09-10T02:18:17.058Z,93.36
2022-09-10T02:20:46.952Z,93.68
2022-09-10T02:23:18.449Z,93.60
2022-09-10T02:25:49.261Z,93.37
2022-09-10T02:28:17.841Z,93.01
2022-09-10T02:30:48.328Z,93.05
2022-09-10T02:33:17.311Z,92.98
2022-09-10T02:35:47.851Z,92.92
2022-09-10T02:38:18.189Z,93.02
2022-09-10T02:40:51.211Z,92.63
2022-09-10T02:43:20.357Z,92.95
2022-09-10T02:45:50.109Z,92.37
2022-09-10T02:48:18.531Z,92.14
2022-09-10T02:50:46.937Z,92.01
2022-09-10T02:53:15.454Z,92.33
2022-09-10T02:55:46.575Z,92.15
2022-09-10T02:58:16.668Z,92.31
2022-09-10T03:00:45.765Z,92.54
2022-09-10T03:03:17.339Z,92.26
2022-09-10T03:05:45.857Z,92.38
2022-09-10T03:08:15.467Z,92.34
2022-09-10T03:10:46.627Z,92.14
2022-09-10T03:13:14.826Z,92.16
2022-09-10T03:15:43.786Z,92.13
2022-09-10T03:18:16.424Z,92.14
2022-09-10T03:20:44.805Z,92.31
2022-09-10T03:23:13.150Z,92.57
2022-09-10T03:25:41.562Z,92.67
2022-09-10T03:28:10.838Z,92.78
2022-09-10T03:30:40.625Z,92.63
2022-09-10T03:33:11.853Z,92.44
2022-09-10T03:35:43.406Z,92.34
2022-09-10T03:38:13.841Z,92.51
2022-09-10T03:40:42.651Z,92.60
2022-09-10T03:43:13.051Z,92.45
2022-09-10T03:45:41.357Z,92.50
2022-09-10T03:48:10.448Z,92.59
2022-09-10T03:50:39.282Z,92.18
2022-09-10T03:53:09.341Z,92.27
2022-09-10T03:55:38.725Z,92.17
2022-09-10T03:58:07.253Z,92.30
2022-09-10T04:00:36.033Z,92.63
2022-09-10T04:03:05.474Z,92.62
2022-09-10T04:05:34.220Z,92.69
2022-09-10T04:08:02.981Z,92.40
2022-09-10T04:10:32.641Z,92.12
2022-09-10T04:13:01.046Z,92.33
2022-09-10T04:15:29.413Z,92.05
2022-09-10T04:17:57.853Z,91.95
2022-09-10T04:20:27.590Z,92.08
2022-09-10T04:23:03.062Z,91.98
2022-09-10T04:25:34.174Z,92.55
2022-09-10T04:28:02.814Z,93.15
2022-09-10T04:30:32.781Z,93.56
2022-09-10T04:33:02.594Z,94.29
2022-09-10T04:35:33.824Z,94.86
2022-09-10T04:38:06.082Z,95.10
2022-09-10T04:40:38.200Z,95.50
2022-09-10T04:43:06.559Z,95.72
2022-09-10T04:45:41.324Z,95.96
2022-09-10T04:48:09.735Z,96.79
2022-09-10T04:50:50.152Z,97.00
2022-09-10T04:53:28.822Z,97.65
2022-09-10T04:56:00.261Z,98.03
2022-09-10T04:58:28.668Z,98.32
2022-09-10T05:00:57.147Z,98.68
2022-09-10T05:03:26.224Z,99.05
2022-09-10T05:05:56.027Z,99.06
2022-09-10T05:08:24.731Z,98.84
2022-09-10T05:11:01.214Z,99.11
2022-09-10T05:13:31.721Z,99.26
2022-09-10T05:16:01.830Z,99.22
2022-09-10T05:18:32.672Z,99.33
2022-09-10T05:21:01.665Z,99.26
2022-09-10T05:23:30.574Z,99.34
2022-09-10T05:26:03.108Z,99.57
2022-09-10T05:28:31.902Z,99.96
2022-09-10T05:31:00.355Z,100.15
2022-09-10T05:33:30.166Z,100.07
2022-09-10T05:35:58.657Z,100.11
2022-09-10T05:38:26.953Z,100.12
2022-09-10T05:40:57.123Z,100.11
2022-09-10T05:43:27.724Z,100.24
2022-09-10T05:45:57.638Z,100.34
2022-09-10T05:48:25.999Z,100.43
2022-09-10T05:50:54.440Z,100.70
2022-09-10T05:53:22.940Z,100.89
2022-09-10T05:55:51.682Z,100.91
2022-09-10T05:58:20.163Z,100.90
2022-09-10T06:00:54.872Z,100.92
2022-09-10T06:03:25.610Z,100.89
2022-09-10T06:05:59.024Z,100.89
2022-09-10T06:08:31.733Z,100.88
2022-09-10T06:11:05.291Z,100.76
2022-09-10T06:13:43.832Z,100.77
2022-09-10T06:16:14.659Z,100.82
2022-09-10T06:18:45.337Z,100.89
2022-09-10T06:21:19.795Z,100.85
2022-09-10T06:23:54.567Z,100.81
2022-09-10T06:26:25.737Z,100.82
2022-09-10T06:28:57.828Z,100.90
2022-09-10T06:31:28.062Z,100.99
2022-09-10T06:33:57.236Z,101.02
2022-09-10T06:36:29.801Z,101.00
2022-09-10T06:38:59.929Z,100.95
2022-09-10T06:41:31.133Z,100.93
2022-09-10T06:44:22.485Z,100.84
2022-09-10T06:49:48.846Z,100.67
2022-09-10T06:52:20.160Z,100.62
2022-09-10T06:54:51.547Z,100.85
2022-09-10T06:57:40.196Z,100.99
2022-09-10T07:00:10.902Z,100.95
2022-09-10T07:02:41.901Z,100.80
2022-09-10T07:05:12.956Z,100.74
2022-09-10T07:07:43.549Z,100.71
2022-09-10T07:10:12.063Z,100.91
2022-09-10T07:12:40.820Z,100.96
2022-09-10T07:15:12.048Z,100.82
2022-09-10T07:17:41.959Z,100.72
2022-09-10T07:20:13.062Z,100.67
2022-09-10T07:22:53.072Z,100.80
2022-09-10T07:25:22.532Z,100.93
2022-09-10T07:28:14.883Z,100.90
2022-09-10T07:30:47.381Z,100.93
2022-09-10T07:33:18.126Z,100.86
2022-09-10T07:35:47.278Z,100.93
2022-09-10T07:38:16.992Z,100.80
2022-09-10T07:40:48.459Z,100.85
2022-09-10T07:43:17.760Z,100.95
2022-09-10T07:45:46.295Z,100.99
2022-09-10T07:48:14.666Z,101.06
2022-09-10T07:50:44.342Z,101.21
2022-09-10T07:53:16.466Z,101.19
2022-09-10T07:55:46.553Z,101.08
2022-09-10T07:58:16.508Z,100.86
2022-09-10T08:00:49.198Z,100.49
2022-09-10T08:03:20.441Z,100.20
2022-09-10T08:05:50.878Z,100.03
2022-09-10T08:08:20.451Z,99.95
2022-09-10T08:10:49.832Z,99.86
2022-09-10T08:13:20.295Z,99.51
2022-09-10T08:15:48.865Z,99.39
2022-09-10T08:18:17.383Z,99.20
2022-09-10T08:20:46.434Z,99.14
2022-09-10T08:23:16.605Z,99.33
2022-09-10T08:25:51.527Z,99.47
2022-09-10T08:28:25.320Z,99.60
2022-09-10T08:30:59.429Z,99.64
2022-09-10T08:33:28.214Z,99.60
2022-09-10T08:35:58.201Z,99.73
2022-09-10T08:38:31.858Z,99.56
2022-09-10T08:41:02.114Z,99.39
2022-09-10T08:43:35.893Z,99.28
2022-09-10T08:46:07.082Z,99.39
2022-09-10T08:48:37.863Z,99.42
2022-09-10T08:51:15.999Z,99.50
2022-09-10T08:53:52.728Z,99.56
2022-09-10T08:56:24.663Z,99.42
2022-09-10T08:59:03.253Z,99.45
2022-09-10T09:01:39.598Z,99.61
2022-09-10T09:04:17.052Z,99.80
2022-09-10T09:06:52.428Z,99.96
2022-09-10T09:09:23.407Z,99.91
2022-09-10T09:11:59.620Z,99.81
2022-09-10T09:14:39.755Z,99.62
2022-09-10T09:17:27.507Z,99.58
2022-09-10T09:20:06.065Z,99.31
2022-09-10T09:22:47.028Z,98.97
2022-09-10T09:25:24.779Z,98.93
2022-09-10T09:27:56.386Z,99.13
2022-09-10T09:30:33.220Z,99.32
2022-09-10T09:33:11.650Z,99.57
2022-09-10T09:35:47.502Z,99.63
2022-09-10T09:38:23.782Z,99.61
2022-09-10T09:40:58.924Z,99.51
2022-09-10T09:43:52.381Z,99.55
2022-09-10T09:46:23.297Z,99.68
2022-09-10T09:48:59.330Z,99.74
2022-09-10T09:51:35.408Z,99.66
2022-09-10T09:54:46.584Z,99.60
2022-09-10T09:57:01.681Z,99.64
2022-09-10T09:59:31.505Z,99.63
2022-09-10T10:02:05.722Z,99.55
2022-09-10T10:04:37.036Z,99.41
2022-09-10T10:07:08.674Z,98.99
2022-09-10T10:09:43.609Z,98.81
2022-09-10T10:12:21.944Z,98.85
2022-09-10T10:14:51.431Z,98.99
2022-09-10T10:17:36.963Z,98.84
2022-09-10T10:20:12.919Z,98.73
2022-09-10T10:22:42.391Z,98.47
2022-09-10T10:25:47.974Z,98.41
2022-09-10T10:28:24.135Z,98.13
2022-09-10T10:30:54.554Z,98.16
2022-09-10T10:33:29.535Z,98.52
2022-09-10T10:36:05.047Z,98.68
2022-09-10T10:38:35.356Z,98.52
2022-09-10T10:41:40.515Z,98.48
2022-09-10T10:44:25.719Z,98.55
2022-09-10T10:47:23.044Z,98.65
2022-09-10T10:50:04.619Z,98.61
2022-09-10T10:52:42.409Z,98.75
2022-09-10T10:55:18.480Z,99.02
2022-09-10T10:58:11.233Z,99.09
2022-09-10T11:00:44.522Z,99.16
2022-09-10T11:03:17.889Z,99.15
2022-09-10T11:05:48.417Z,99.03
2022-09-10T11:08:23.376Z,99.13
2022-09-10T11:10:56.766Z,99.39
2022-09-10T11:13:31.626Z,99.45
2022-09-10T11:16:06.867Z,99.47
2022-09-10T11:18:43.685Z,99.30
2022-09-10T11:21:19.124Z,99.06
2022-09-10T11:23:51.344Z,98.71
2022-09-10T11:26:25.353Z,98.39
2022-09-10T11:29:01.580Z,97.90
2022-09-10T11:31:36.222Z,97.94
2022-09-10T11:34:08.046Z,97.98
2022-09-10T11:36:43.925Z,98.06
2022-09-10T11:39:19.169Z,98.31
2022-09-10T11:41:50.241Z,98.13
2022-09-10T11:44:36.791Z,98.06
2022-09-10T11:47:14.433Z,98.21
2022-09-10T11:49:49.628Z,98.27
2022-09-10T11:52:19.311Z,97.94
2022-09-10T11:54:47.876Z,97.63
2022-09-10T11:57:27.521Z,97.85
2022-09-10T12:00:15.919Z,97.60
2022-09-10T12:03:35.041Z,97.45
2022-09-10T12:06:10.518Z,97.55
2022-09-10T12:08:55.600Z,97.96
2022-09-10T12:11:31.810Z,98.35
2022-09-10T12:14:00.936Z,97.94
2022-09-10T12:16:35.919Z,95.97
2022-09-10T12:19:10.003Z,95.99
2022-09-10T12:21:45.566Z,97.16
2022-09-10T12:24:30.940Z,97.54
2022-09-10T12:27:00.867Z,98.12
2022-09-10T12:29:33.183Z,98.79
2022-09-10T12:32:30.924Z,99.26
2022-09-10T12:35:41.625Z,99.48
2022-09-10T12:38:42.971Z,99.41
2022-09-10T12:41:14.882Z,99.55
2022-09-10T12:43:57.626Z,99.42
2022-09-10T12:46:26.993Z,99.35
2022-09-10T12:49:13.589Z,98.95
2022-09-10T12:51:57.845Z,98.50
2022-09-10T12:54:42.950Z,97.69
2022-09-10T12:57:35.789Z,97.25
2022-09-10T13:00:22.195Z,97.13
2022-09-10T13:03:09.430Z,97.32
2022-09-10T13:05:50.696Z,97.66
2022-09-10T13:08:24.355Z,97.84
2022-09-10T13:11:15.809Z,98.16
2022-09-10T13:13:52.580Z,98.65
2022-09-10T13:16:23.421Z,98.65
2022-09-10T13:18:56.816Z,98.57
2022-09-10T13:21:56.219Z,98.58
2022-09-10T13:24:39.448Z,98.30
2022-09-10T13:27:21.864Z,97.86
2022-09-10T13:29:56.617Z,96.73
2022-09-10T13:32:31.014Z,95.94
2022-09-10T13:35:29.463Z,95.81
2022-09-10T13:38:39.478Z,95.77
2022-09-10T13:41:24.622Z,95.66
2022-09-10T13:44:11.360Z,95.72
2022-09-10T13:46:43.052Z,95.25
2022-09-10T13:49:16.740Z,94.35
2022-09-10T13:51:51.785Z,93.32
2022-09-10T13:54:34.568Z,92.50
2022-09-10T13:57:09.385Z,93.00
2022-09-10T13:59:38.917Z,93.34
2022-09-10T14:02:08.667Z,93.27
2022-09-10T14:04:43.134Z,93.28
2022-09-10T14:07:16.260Z,92.89
2022-09-10T14:09:47.243Z,89.58
2022-09-10T14:12:17.782Z,85.96
2022-09-10T14:14:51.159Z,84.70
2022-09-10T14:17:25.696Z,84.07
2022-09-10T14:19:59.354Z,83.25
2022-09-10T14:22:29.459Z,82.64
2022-09-10T14:24:59.940Z,82.46
2022-09-10T14:27:31.019Z,82.71
2022-09-10T14:30:23.134Z,81.44
2022-09-10T14:32:53.636Z,80.17
2022-09-10T14:35:43.221Z,80.14
2022-09-10T14:38:25.455Z,78.65
2022-09-10T14:40:59.001Z,77.14
2022-09-10T14:43:30.185Z,78.96
2022-09-10T14:45:58.881Z,78.28
2022-09-10T14:48:35.729Z,77.23
2022-09-10T14:51:14.882Z,79.08
2022-09-10T14:53:44.177Z,79.81
2022-09-10T14:56:22.462Z,81.23
2022-09-10T14:58:58.570Z,82.78
2022-09-10T15:01:29.693Z,83.61
2022-09-10T15:04:00.488Z,84.47
2022-09-10T15:06:28.848Z,84.70
2022-09-10T15:08:57.190Z,84.58
2022-09-10T15:11:28.222Z,83.94
2022-09-10T15:13:58.958Z,81.88
2022-09-10T15:16:28.144Z,82.07
2022-09-10T15:18:58.401Z,82.81
2022-09-10T15:21:28.116Z,82.11
2022-09-10T15:23:56.349Z,78.35
2022-09-10T15:26:25.519Z,78.59
2022-09-10T15:28:53.868Z,81.07
2022-09-10T15:31:23.327Z,82.25
2022-09-10T15:33:52.666Z,82.23
2022-09-10T15:36:22.602Z,78.57
2022-09-10T15:38:55.856Z,75.83
2022-09-10T15:41:24.176Z,74.69
2022-09-10T15:43:52.809Z,77.40
2022-09-10T15:46:24.540Z,78.73
2022-09-10T15:48:53.740Z,81.30
2022-09-10T15:51:23.302Z,82.16
2022-09-10T15:53:55.106Z,82.99
2022-09-10T15:56:26.085Z,83.16
2022-09-10T15:58:56.459Z,83.52
2022-09-10T16:01:26.172Z,83.50
2022-09-10T16:03:56.993Z,83.81
2022-09-10T16:06:27.762Z,83.36
2022-09-10T16:09:02.126Z,83.10
2022-09-10T16:11:31.892Z,83.70
2022-09-10T16:14:04.765Z,83.49
2022-09-10T16:16:34.015Z,83.74
2022-09-10T16:19:02.473Z,83.27
2022-09-10T16:21:32.742Z,82.33
2022-09-10T16:24:02.816Z,81.90
2022-09-10T16:26:32.802Z,82.10
2022-09-10T16:29:02.734Z,82.11
2022-09-10T16:31:33.198Z,81.94
2022-09-10T16:34:04.770Z,82.04
2022-09-10T16:36:34.748Z,82.18
2022-09-10T16:39:07.336Z,81.26
2022-09-10T16:41:35.765Z,81.26
2022-09-10T16:44:04.442Z,81.97
2022-09-10T16:46:32.950Z,82.82
2022-09-10T16:49:01.203Z,83.45
2022-09-10T16:51:30.005Z,82.62
2022-09-10T16:54:02.630Z,82.91
2022-09-10T16:56:37.010Z,83.45
2022-09-10T16:59:07.575Z,83.75
2022-09-10T17:01:36.751Z,83.74
2022-09-10T17:04:07.540Z,84.37
2022-09-10T17:06:36.981Z,84.59
2022-09-10T17:09:05.640Z,85.05
2022-09-10T17:11:35.380Z,85.85
2022-09-10T17:14:03.693Z,86.38
2022-09-10T17:16:34.201Z,86.74
2022-09-10T17:19:04.202Z,87.65
2022-09-10T17:21:34.623Z,87.57
2022-09-10T17:24:04.581Z,87.96
2022-09-10T17:26:33.938Z,88.13
2022-09-10T17:29:06.457Z,88.64
2022-09-10T17:31:35.614Z,88.98
2022-09-10T17:34:04.783Z,89.22
2022-09-10T17:36:34.919Z,89.70
2022-09-10T17:39:03.301Z,89.90
2022-09-10T17:41:31.931Z,89.32
2022-09-10T17:44:00.815Z,89.28
2022-09-10T17:46:31.201Z,89.89
2022-09-10T17:49:01.038Z,89.99
2022-09-10T17:51:30.962Z,89.86
2022-09-10T17:53:59.699Z,89.94
2022-09-10T17:56:28.253Z,89.97
2022-09-10T17:58:59.332Z,90.05
2022-09-10T18:01:33.717Z,89.02
2022-09-10T18:04:03.093Z,89.19
2022-09-10T18:06:32.339Z,89.57
2022-09-10T18:09:01.864Z,89.71
2022-09-10T18:11:32.664Z,90.09
2022-09-10T18:14:01.940Z,90.16
2022-09-10T18:16:33.475Z,90.66
2022-09-10T18:19:03.394Z,90.52
2022-09-10T18:21:33.820Z,90.61
2022-09-10T18:24:04.316Z,91.10
2022-09-10T18:26:34.748Z,90.63
2022-09-10T18:29:05.514Z,89.73
2022-09-10T18:31:37.270Z,89.34
2022-09-10T18:34:07.421Z,89.52
2022-09-10T18:36:36.090Z,90.04
2022-09-10T18:39:05.766Z,89.74
2022-09-10T18:41:36.029Z,90.42
2022-09-10T18:44:08.106Z,90.76
2022-09-10T18:46:38.040Z,91.30
2022-09-10T18:49:06.492Z,91.66
2022-09-10T18:51:36.167Z,92.08
2022-09-10T18:54:05.437Z,92.40
2022-09-10T18:56:33.764Z,92.85
2022-09-10T18:59:04.959Z,93.10
2022-09-10T19:01:34.108Z,93.31
2022-09-10T19:04:06.381Z,93.34
2022-09-10T19:06:37.435Z,93.44
2022-09-10T19:09:09.037Z,93.69
2022-09-10T19:11:39.144Z,94.04
2022-09-10T19:14:09.306Z,94.30
2022-09-10T19:16:37.807Z,94.53
2022-09-10T19:19:08.433Z,94.42
2022-09-10T19:21:36.862Z,94.56
2022-09-10T19:24:06.653Z,94.83
2022-09-10T19:26:36.473Z,95.06
2022-09-10T19:29:05.732Z,95.06
2022-09-10T19:31:35.972Z,95.21
2022-09-10T19:34:07.422Z,95.36
2022-09-10T19:36:37.497Z,95.32
2022-09-10T19:39:07.904Z,95.50
2022-09-10T19:41:39.090Z,95.49
2022-09-10T19:44:08.627Z,95.36
2022-09-10T19:46:38.789Z,95.25
2022-09-10T19:49:07.833Z,95.13
2022-09-10T19:51:38.925Z,95.23
2022-09-10T19:54:08.200Z,95.46
2022-09-10T19:56:41.232Z,95.80
2022-09-10T19:59:10.635Z,95.70
2022-09-10T20:01:41.373Z,95.80
2022-09-10T20:04:12.030Z,95.76
2022-09-10T20:06:42.490Z,95.69
2022-09-10T20:09:11.038Z,95.64
2022-09-10T20:11:39.747Z,95.66
2022-09-10T20:14:10.067Z,95.58
2022-09-10T20:16:39.872Z,95.59
2022-09-10T20:19:09.191Z,95.66
2022-09-10T20:21:37.885Z,95.76
2022-09-10T20:24:09.089Z,95.88
2022-09-10T20:26:40.005Z,95.79
2022-09-10T20:29:10.574Z,95.72
2022-09-10T20:31:41.127Z,95.87
2022-09-10T20:34:12.342Z,95.72
2022-09-10T20:36:42.436Z,95.55
2022-09-10T20:39:14.721Z,95.59
2022-09-10T20:41:43.209Z,95.65
2022-09-10T20:44:13.969Z,95.79
2022-09-10T20:46:43.359Z,95.91
2022-09-10T20:49:13.141Z,95.81
2022-09-10T20:51:41.758Z,95.88
2022-09-10T20:54:13.155Z,95.97
2022-09-10T20:56:42.270Z,95.93
2022-09-10T20:59:12.455Z,95.85
2022-09-10T21:01:40.812Z,95.84
2022-09-10T21:04:09.289Z,95.80
2022-09-10T21:06:37.849Z,95.82
2022-09-10T21:09:07.118Z,95.72
2022-09-10T21:11:37.435Z,95.74
2022-09-10T21:14:07.433Z,95.63
2022-09-10T21:16:36.979Z,95.60
2022-09-10T21:19:08.525Z,95.52
2022-09-10T21:21:39.397Z,95.52
2022-09-10T21:24:09.415Z,95.68
2022-09-10T21:26:40.633Z,95.65
2022-09-10T21:29:11.514Z,95.62
2022-09-10T21:31:40.613Z,95.61
2022-09-10T21:34:09.333Z,95.50
2022-09-10T21:36:39.386Z,95.45
2022-09-10T21:39:12.517Z,95.46
2022-09-10T21:41:44.482Z,95.33
2022-09-10T21:44:14.954Z,95.24
2022-09-10T21:46:43.557Z,95.14
2022-09-10T21:49:13.303Z,95.10
2022-09-10T21:51:42.242Z,95.17
2022-09-10T21:54:14.833Z,95.14
2022-09-10T21:56:44.407Z,95.12
2022-09-10T21:59:13.335Z,95.11
2022-09-10T22:01:44.056Z,95.06
2022-09-10T22:04:13.192Z,95.20
2022-09-10T22:06:42.616Z,95.07
2022-09-10T22:09:13.830Z,94.98
2022-09-10T22:11:46.053Z,94.89
2022-09-10T22:14:16.184Z,94.88
2022-09-10T22:16:45.574Z,95.14
2022-09-10T22:19:18.160Z,95.07
2022-09-10T22:21:47.139Z,94.97
2022-09-10T22:24:18.601Z,95.06
2022-09-10T22:26:49.052Z,95.26
2022-09-10T22:29:18.899Z,95.24
2022-09-10T22:31:47.896Z,95.32
2022-09-10T22:34:20.424Z,95.31
2022-09-10T22:36:49.678Z,95.47
2022-09-10T22:39:19.542Z,95.36
2022-09-10T22:41:50.170Z,95.24
2022-09-10T22:44:19.942Z,95.07
2022-09-10T22:46:48.587Z,95.01
2022-09-10T22:49:17.968Z,95.00
2022-09-10T22:51:46.485Z,94.96
2022-09-10T22:54:17.519Z,94.94
2022-09-10T22:56:45.809Z,94.88
2022-09-10T22:59:16.907Z,94.94
2022-09-10T23:01:47.314Z,94.91
2022-09-10T23:04:16.209Z,94.93
2022-09-10T23:06:44.456Z,94.89
2022-09-10T23:09:14.520Z,94.82
2022-09-10T23:11:44.203Z,94.80
2022-09-10T23:14:17.877Z,94.87
2022-09-10T23:16:48.571Z,94.90
2022-09-10T23:19:19.169Z,94.99
2022-09-10T23:21:49.392Z,94.94
2022-09-10T23:24:19.977Z,94.94
2022-09-10T23:26:48.378Z,94.91
2022-09-10T23:29:18.577Z,94.89
2022-09-10T23:31:47.738Z,94.86
2022-09-10T23:34:18.641Z,94.89
2022-09-10T23:36:48.582Z,94.76
2022-09-10T23:39:19.960Z,94.73
2022-09-10T23:41:48.713Z,94.85
2022-09-10T23:44:18.840Z,94.87
2022-09-10T23:46:48.124Z,94.92
2022-09-10T23:49:16.494Z,94.88
2022-09-10T23:51:44.784Z,94.91
2022-09-10T23:54:13.282Z,94.97
2022-09-10T23:56:41.926Z,94.93
2022-09-10T23:59:11.501Z,94.99
